Time;durP1;ratioP1;P1;durP2;ratioP2;P2;SDS_P1;SDS_P2;PMS_P1;PMS_P2;Temp;Humidity;BMP_temperature;BMP_pressure;BME280_temperature;BME280_humidity;BME280_pressure;Samples;Min_cycle;Max_cycle;Signal;HPM_P1;HPM_P2
2023/01/26 00:01:35;;;;;;;;;;;;;;;3.08;100.00;99956.53;5048073;28;19912;-75
2023/01/26 00:04:00;;;;;;;;;;;;;;;3.08;100.00;99957.38;5057434;28;19978;-75
2023/01/26 00:06:26;;;;;;;;;;;;;;;3.09;100.00;99953.00;5047202;28;19996;-75
2023/01/26 00:08:53;;;;;;;;;;;;;;;3.08;100.00;99949.53;5045979;28;19968;-76
2023/01/26 00:11:20;;;;;;;;;;;;;;;3.07;100.00;99947.00;5047556;28;20340;-75
2023/01/26 00:13:48;;;;;;;;;;;;;;;3.01;100.00;99942.16;5046112;28;20396;-77
2023/01/26 00:16:13;;;;;;;;;;;;;;;2.93;100.00;99941.75;5043221;28;20385;-75
2023/01/26 00:18:40;;;;;;;;;;;;;;;2.87;100.00;99933.34;5049316;28;20007;-76
2023/01/26 00:21:06;;;;;;;;;;;;;;;2.88;100.00;99931.59;5057849;28;20372;-76
2023/01/26 00:23:32;;;;;;;;;;;;;;;2.87;100.00;99933.34;5060889;28;20266;-75
2023/01/26 00:25:57;;;;;;;;;;;;;;;2.94;100.00;99930.41;5045863;28;19980;-76
2023/01/26 00:28:23;;;;;;;;;;;;;;;2.92;100.00;99919.22;5050878;28;19917;-76
2023/01/26 00:30:48;;;;;;;;;;;;;;;2.84;100.00;99917.88;5044561;28;19923;-76
2023/01/26 00:33:15;;;;;;;;;;;;;;;2.84;100.00;99919.63;5047657;28;19916;-76
2023/01/26 00:35:43;;;;;;;;;;;;;;;2.84;100.00;99912.66;5043339;28;19979;-76
2023/01/26 00:38:12;;;;;;;;;;;;;;;2.81;100.00;99912.84;5072328;28;19970;-76
2023/01/26 00:40:39;;;;;;;;;;;;;;;2.84;100.00;99912.66;5046293;28;20011;-75
2023/01/26 00:43:05;;;;;;;;;;;;;;;2.88;100.00;99908.97;5047287;28;20438;-75
2023/01/26 00:45:31;;;;;;;;;;;;;;;2.94;100.00;99912.16;5055517;28;19923;-75
2023/01/26 00:47:56;;;;;;;;;;;;;;;2.98;100.00;99903.22;5048503;28;19917;-76
2023/01/26 00:50:22;;;;;;;;;;;;;;;3.00;100.00;99911.81;5025020;28;19920;-76
2023/01/26 00:52:48;;;;;;;;;;;;;;;3.02;100.00;99909.94;5073814;28;19916;-75
2023/01/26 00:55:13;;;;;;;;;;;;;;;3.08;100.00;99906.97;5045941;28;20400;-75
2023/01/26 00:57:39;;;;;;;;;;;;;;;3.07;100.00;99913.13;5048430;28;19935;-76
2023/01/26 01:00:05;;;;;;;;;;;;;;;3.08;100.00;99914.81;5046659;28;19917;-75
2023/01/26 01:02:31;;;;;;;;;;;;;;;3.13;100.00;99907.56;5046936;28;19921;-75
2023/01/26 01:04:56;;;;;;;;;;;;;;;3.17;100.00;99909.09;5070327;28;19916;-76
2023/01/26 01:07:22;;;;;;;;;;;;;;;3.20;100.00;99914.09;5048836;28;19956;-75
2023/01/26 01:09:47;;;;;;;;;;;;;;;3.18;100.00;99905.56;5044463;28;19917;-75
2023/01/26 01:12:12;;;;;;;;;;;;;;;3.10;100.00;99907.75;5044630;28;19974;-76
2023/01/26 01:14:38;;;;;;;;;;;;;;;2.98;100.00;99898.84;5044107;28;19925;-77
2023/01/26 01:17:03;;;;;;;;;;;;;;;2.86;100.00;99896.94;5046440;28;19923;-76
2023/01/26 01:19:29;;;;;;;;;;;;;;;2.82;100.00;99893.69;5048321;28;19925;-76
2023/01/26 01:21:54;;;;;;;;;;;;;;;2.87;100.00;99894.25;5046105;28;19966;-75
2023/01/26 01:24:20;;;;;;;;;;;;;;;2.90;100.00;99895.81;5044913;28;19961;-75
2023/01/26 01:26:45;;;;;;;;;;;;;;;2.97;100.00;99888.50;5030199;28;20542;-75
2023/01/26 01:29:12;;;;;;;;;;;;;;;2.98;100.00;99888.44;5041353;28;19923;-76
2023/01/26 01:31:37;;;;;;;;;;;;;;;3.02;100.00;99884.72;5049160;28;19923;-75
2023/01/26 01:34:03;;;;;;;;;;;;;;;3.03;100.00;99880.34;5073525;28;19916;-75
2023/01/26 01:36:30;;;;;;;;;;;;;;;3.03;100.00;99880.34;5050854;28;19923;-76
2023/01/26 01:38:55;;;;;;;;;;;;;;;2.97;100.00;99878.09;5030395;28;20276;-75
2023/01/26 01:41:24;;;;;;;;;;;;;;;3.00;100.00;99870.09;5048041;28;19917;-75
2023/01/26 01:43:50;;;;;;;;;;;;;;;3.03;100.00;99869.91;5046122;28;19963;-74
2023/01/26 01:46:16;;;;;;;;;;;;;;;3.00;100.00;99860.50;5052319;28;19921;-75
2023/01/26 01:48:47;;;;;;;;;;;;;;;2.96;100.00;99868.56;5032504;28;19921;-75
2023/01/26 01:51:18;;;;;;;;;;;;;;;2.93;100.00;99863.56;5051651;28;20300;-75
2023/01/26 01:53:47;;;;;;;;;;;;;;;2.88;100.00;99866.44;5035974;28;20373;-75
2023/01/26 01:56:17;;;;;;;;;;;;;;;2.91;100.00;99860.19;5052174;28;19916;-75
2023/01/26 01:58:44;;;;;;;;;;;;;;;2.95;100.00;99853.84;5063801;28;19982;-74
2023/01/26 02:01:10;;;;;;;;;;;;;;;3.00;100.00;99854.47;5064910;28;19975;-73
2023/01/26 02:03:36;;;;;;;;;;;;;;;3.03;100.00;99854.25;5066536;28;20020;-75
2023/01/26 02:06:07;;;;;;;;;;;;;;;3.05;100.00;99848.06;5071790;28;19916;-74
2023/01/26 02:08:36;;;;;;;;;;;;;;;3.06;100.00;99844.53;5068141;28;20019;-75
2023/01/26 02:11:04;;;;;;;;;;;;;;;3.08;100.00;99842.66;5065369;28;20248;-74
2023/01/26 02:13:30;;;;;;;;;;;;;;;3.10;100.00;99840.81;5069625;28;20307;-74
2023/01/26 02:15:57;;;;;;;;;;;;;;;3.11;100.00;99833.81;5068887;28;19916;-75
2023/01/26 02:18:22;;;;;;;;;;;;;;;3.02;100.00;99826.50;5070226;28;19916;-74
2023/01/26 02:20:50;;;;;;;;;;;;;;;3.02;100.00;99826.50;5072021;28;20273;-74
2023/01/26 02:23:16;;;;;;;;;;;;;;;3.01;100.00;99819.63;5067511;28;19916;-75
2023/01/26 02:25:51;;;;;;;;;;;;;;;3.04;100.00;99816.84;5051054;28;19923;-75
2023/01/26 02:28:17;;;;;;;;;;;;;;;3.05;100.00;99811.56;5069789;28;19920;-75
2023/01/26 02:30:43;;;;;;;;;;;;;;;3.07;100.00;99821.88;5065480;28;20350;-75
2023/01/26 02:33:18;;;;;;;;;;;;;;;3.06;100.00;99812.41;5078230;28;19916;-75
2023/01/26 02:35:44;;;;;;;;;;;;;;;3.08;100.00;99806.13;5076217;28;19920;-74
2023/01/26 02:38:11;;;;;;;;;;;;;;;3.15;100.00;99801.41;5068538;28;19923;-74
2023/01/26 02:40:40;;;;;;;;;;;;;;;3.16;100.00;99808.31;5066119;28;19921;-74
2023/01/26 02:43:05;;;;;;;;;;;;;;;3.13;100.00;99805.88;5076283;28;19917;-74
2023/01/26 02:45:32;;;;;;;;;;;;;;;3.10;100.00;99806.91;5072921;28;19916;-74
2023/01/26 02:48:03;;;;;;;;;;;;;;;3.02;100.00;99796.06;5074036;28;20274;-75
2023/01/26 02:50:29;;;;;;;;;;;;;;;3.01;100.00;99790.94;5049976;28;19923;-75
2023/01/26 02:52:55;;;;;;;;;;;;;;;2.96;100.00;99791.22;5072620;28;20007;-76
2023/01/26 02:55:22;;;;;;;;;;;;;;;2.95;100.00;99788.69;5036479;28;20299;-75
2023/01/26 02:57:48;;;;;;;;;;;;;;;2.77;100.00;99786.22;5072037;28;19923;-75
2023/01/26 03:00:26;;;;;;;;;;;;;;;2.71;100.00;99786.56;5083124;28;20379;-75
2023/01/26 03:02:54;;;;;;;;;;;;;;;2.61;100.00;99775.00;5053376;28;19924;-74
2023/01/26 03:05:19;;;;;;;;;;;;;;;2.56;100.00;99771.81;5071799;28;20284;-75
2023/01/26 03:07:45;;;;;;;;;;;;;;;2.47;100.00;99767.16;5073080;28;19924;-74
2023/01/26 03:10:11;;;;;;;;;;;;;;;2.34;100.00;99767.00;5070190;28;20019;-76
2023/01/26 03:12:36;;;;;;;;;;;;;;;2.39;100.00;99771.94;5070940;28;19921;-76
2023/01/26 03:17:46;;;;;;;;;;;;;;;2.48;100.00;99763.59;5072049;28;19927;-75
2023/01/26 03:28:27;;;;;;;;;;;;;;;2.51;100.00;99757.38;5052716;28;19912;-75
2023/01/26 03:30:54;;;;;;;;;;;;;;;2.53;100.00;99756.38;5048797;28;19927;-75
2023/01/26 03:33:19;;;;;;;;;;;;;;;2.51;100.00;99753.03;5066998;28;19966;-74
2023/01/26 03:35:45;;;;;;;;;;;;;;;2.54;100.00;99757.19;5066521;28;20376;-75
2023/01/26 03:38:12;;;;;;;;;;;;;;;2.54;100.00;99758.03;5053130;28;19951;-75
2023/01/26 03:57:08;;;;;;;;;;;;;;;2.70;100.00;99748.44;5049543;28;20007;-75
2023/01/26 03:59:36;;;;;;;;;;;;;;;2.65;100.00;99742.63;5055402;28;19960;-76
2023/01/26 04:10:18;;;;;;;;;;;;;;;2.67;100.00;99737.34;5048325;28;19921;-76
2023/01/26 04:12:43;;;;;;;;;;;;;;;2.67;100.00;99727.75;5061651;28;20001;-75
2023/01/26 04:23:32;;;;;;;;;;;;;;;2.68;100.00;99737.25;5049129;28;19987;-76
2023/01/26 04:25:58;;;;;;;;;;;;;;;2.66;100.00;99735.66;5068038;28;20003;-76
2023/01/26 04:28:23;;;;;;;;;;;;;;;2.66;100.00;99733.88;5068002;28;20024;-75
2023/01/26 04:30:50;;;;;;;;;;;;;;;2.69;100.00;99736.34;5077460;28;19951;-75
2023/01/26 04:33:16;;;;;;;;;;;;;;;2.73;100.00;99736.97;5064946;28;20299;-75
2023/01/26 04:35:41;;;;;;;;;;;;;;;2.72;100.00;99730.94;5034033;28;19920;-74
2023/01/26 04:38:07;;;;;;;;;;;;;;;2.75;100.00;99730.78;5052350;28;19970;-75
2023/01/26 04:40:32;;;;;;;;;;;;;;;2.75;100.00;99725.56;5077147;28;20363;-75
2023/01/26 04:42:58;;;;;;;;;;;;;;;2.76;100.00;99727.25;5049717;28;19935;-74
2023/01/26 04:45:23;;;;;;;;;;;;;;;2.78;100.00;99724.53;5075888;28;19916;-76
2023/01/26 04:47:49;;;;;;;;;;;;;;;2.79;100.00;99726.19;5050848;28;19920;-76
2023/01/26 04:50:16;;;;;;;;;;;;;;;2.80;100.00;99728.72;5044504;28;20292;-75
2023/01/26 04:52:43;;;;;;;;;;;;;;;2.82;100.00;99731.25;5076174;28;20284;-76
2023/01/26 04:55:09;;;;;;;;;;;;;;;2.82;100.00;99726.88;5077532;28;20438;-76
2023/01/26 04:57:35;;;;;;;;;;;;;;;2.85;100.00;99725.84;5048286;28;20395;-76
2023/01/26 05:00:03;;;;;;;;;;;;;;;2.83;100.00;99733.75;5074011;28;19944;-77
2023/01/26 05:02:29;;;;;;;;;;;;;;;2.80;100.00;99727.88;5049442;28;20330;-76
2023/01/26 05:04:54;;;;;;;;;;;;;;;2.78;100.00;99730.56;5047600;28;20329;-75
2023/01/26 05:07:20;;;;;;;;;;;;;;;2.79;100.00;99731.41;5048358;28;20368;-76
2023/01/26 05:09:46;;;;;;;;;;;;;;;2.80;100.00;99727.88;5063538;28;19948;-76
2023/01/26 05:12:32;;;;;;;;;;;;;;;2.76;100.00;99727.25;5069720;28;19923;-76
2023/01/26 05:15:24;;;;;;;;;;;;;;;2.76;100.00;99732.44;5060018;28;19912;-75
2023/01/26 05:18:01;;;;;;;;;;;;;;;2.82;100.00;99736.47;5077552;28;20291;-76
2023/01/26 05:20:36;;;;;;;;;;;;;;;2.83;100.00;99728.53;5055934;28;19917;-76
2023/01/26 05:23:12;;;;;;;;;;;;;;;2.82;100.00;99726.88;5068500;28;20014;-76
2023/01/26 05:25:56;;;;;;;;;;;;;;;2.79;100.00;99724.44;5068536;28;19923;-76
2023/01/26 05:28:22;;;;;;;;;;;;;;;2.75;100.00;99722.94;5052870;28;19916;-75
2023/01/26 05:30:47;;;;;;;;;;;;;;;2.74;100.00;99718.66;5047863;28;19916;-75
2023/01/26 05:33:13;;;;;;;;;;;;;;;2.72;100.00;99725.72;5060485;28;19923;-75
2023/01/26 05:35:39;;;;;;;;;;;;;;;2.69;100.00;99720.69;5048715;28;19921;-75
2023/01/26 05:38:07;;;;;;;;;;;;;;;2.72;100.00;99720.50;5067765;28;19916;-76
2023/01/26 05:40:33;;;;;;;;;;;;;;;2.73;100.00;99718.75;5049220;28;20176;-75
2023/01/26 05:42:58;;;;;;;;;;;;;;;2.76;100.00;99726.41;5070877;28;20010;-75
2023/01/26 05:45:46;;;;;;;;;;;;;;;2.74;100.00;99718.66;5072383;28;19923;-75
2023/01/26 05:48:13;;;;;;;;;;;;;;;2.72;100.00;99720.50;5054125;28;19917;-76
2023/01/26 05:50:39;;;;;;;;;;;;;;;2.72;100.00;99717.91;5044939;28;20377;-75
2023/01/26 05:53:16;;;;;;;;;;;;;;;2.75;100.00;99720.34;5043494;28;19918;-75
2023/01/26 05:55:42;;;;;;;;;;;;;;;2.77;100.00;99717.63;5054952;28;19964;-75
2023/01/26 05:58:09;;;;;;;;;;;;;;;2.74;100.00;99723.88;5057758;28;19917;-75
2023/01/26 06:00:34;;;;;;;;;;;;;;;2.74;100.00;99721.25;5032310;28;19923;-75
2023/01/26 06:03:06;;;;;;;;;;;;;;;2.77;100.00;99723.69;5044067;28;19944;-75
2023/01/26 06:05:32;;;;;;;;;;;;;;;2.77;100.00;99722.84;5029723;28;20427;-74
2023/01/26 06:07:58;;;;;;;;;;;;;;;2.75;100.00;99719.50;5029755;28;20016;-75
2023/01/26 06:10:28;;;;;;;;;;;;;;;2.75;100.00;99725.56;5031451;28;19956;-74
2023/01/26 06:13:16;;;;;;;;;;;;;;;2.72;100.00;99725.72;5026060;28;19917;-75
2023/01/26 06:16:00;;;;;;;;;;;;;;;2.69;100.00;99725.91;5057989;28;20347;-79
2023/01/26 06:18:27;;;;;;;;;;;;;;;2.61;100.00;99717.69;5031463;28;20352;-77
2023/01/26 06:20:57;;;;;;;;;;;;;;;2.59;100.00;99713.50;5048202;28;19917;-78
2023/01/26 06:23:23;;;;;;;;;;;;;;;2.57;100.00;99716.19;5033811;28;20284;-79
2023/01/26 06:25:50;;;;;;;;;;;;;;;2.54;100.00;99716.34;5033392;28;19917;-80
2023/01/26 06:28:16;;;;;;;;;;;;;;;2.55;100.00;99712.84;5035818;28;20288;-80
2023/01/26 06:30:43;;;;;;;;;;;;;;;2.50;100.00;99707.06;5062281;28;19917;-77
2023/01/26 06:33:11;;;;;;;;;;;;;;;2.51;100.00;99705.28;5043308;28;20303;-79
2023/01/26 06:35:37;;;;;;;;;;;;;;;2.33;100.00;99709.78;5040946;28;19927;-77
2023/01/26 06:38:05;;;;;;;;;;;;;;;2.24;100.00;99707.72;5057728;28;19917;-78
2023/01/26 06:40:30;;;;;;;;;;;;;;;2.23;100.00;99700.81;5040689;28;19971;-78
2023/01/26 06:42:56;;;;;;;;;;;;;;;2.26;100.00;99705.84;5057744;28;19924;-78
2023/01/26 06:45:21;;;;;;;;;;;;;;;2.31;100.00;99701.22;5070761;28;19924;-79
2023/01/26 06:47:50;;;;;;;41.65;29.73;;;;;;;2.38;100.00;99699.94;5069083;28;19917;-75
2023/01/26 06:50:19;;;;;;;47.58;29.92;;;;;;;2.46;100.00;99703.78;5058178;28;20045;-77
2023/01/26 06:52:51;;;;;;;43.85;29.88;;;;;;;2.50;100.00;99707.06;5047373;28;20286;-78
2023/01/26 06:55:46;;;;;;;44.75;29.55;;;;;;;2.54;100.00;99705.09;5033310;28;20033;-78
2023/01/26 06:58:32;;;;;;;41.63;28.02;;;;;;;2.50;100.00;99704.44;5038969;28;20063;-78
2023/01/26 07:01:23;;;;;;;43.70;28.85;;;;;;;2.53;100.00;99704.28;5043282;28;20044;-79
2023/01/26 07:03:53;;;;;;;46.38;29.33;;;;;;;2.47;100.00;99702.03;5040648;28;20034;-79
2023/01/26 07:06:18;;;;;;;51.40;30.52;;;;;;;2.47;100.00;99704.63;5043014;28;20029;-79
2023/01/26 07:08:44;;;;;;;45.35;30.60;;;;;;;2.47;100.00;99704.63;5046061;28;20059;-80
2023/01/26 07:11:11;;;;;;;47.58;31.48;;;;;;;2.49;100.00;99697.56;5044232;28;20489;-79
2023/01/26 07:13:38;;;;;;;48.13;31.30;;;;;;;2.52;100.00;99697.41;5036728;28;20093;-80
2023/01/26 07:16:09;;;;;;;53.88;32.60;;;;;;;2.51;100.00;99700.06;5050925;28;20026;-80
2023/01/26 07:18:36;;;;;;;54.63;32.75;;;;;;;2.56;100.00;99687.63;4682917;28;10000268;-80
2023/01/26 07:21:09;;;;;;;;;;;;;;;2.58;100.00;99691.00;5032896;28;20035;-79
2023/01/26 07:23:34;;;;;;;;;;;;;;;2.54;100.00;99690.31;5044718;28;19959;-80
2023/01/26 07:25:59;;;;;;;;;;;;;;;2.52;100.00;99697.41;5033735;28;19927;-80
2023/01/26 07:28:25;;;;;;;;;;;;;;;2.53;100.00;99685.22;5032150;28;19959;-77
2023/01/26 07:30:56;;;;;;;;;;;;;;;2.54;100.00;99685.09;5035602;28;19917;-80
2023/01/26 07:33:21;;;;;;;;;;;;;;;2.53;100.00;99688.66;5034960;28;19944;-79
2023/01/26 07:35:47;;;;;;;;;;;;;;;2.53;100.00;99686.06;5033756;28;19921;-75
2023/01/26 07:38:12;;;;;;;;;;;;;;;2.52;100.00;99692.19;4680214;28;10000198;-74
2023/01/26 07:40:38;;;;;;;;;;;;;;;2.53;100.00;99693.03;5027068;28;19917;-72
2023/01/26 07:43:03;;;;;;;;;;;;;;;2.49;100.00;99692.34;5021630;28;19920;-74
2023/01/26 07:45:46;;;;;;;;;;;;;;;2.51;100.00;99700.06;5038124;28;19917;-73
2023/01/26 07:48:11;;;;;;;;;;;;;;;2.50;100.00;99694.03;5030130;28;19924;-73
2023/01/26 07:50:37;;;;;;;;;;;;;;;2.53;100.00;99696.47;5045124;28;19923;-73
2023/01/26 07:53:02;;;;;;;;;;;;;;;2.49;100.00;99697.56;5047190;28;19923;-76
2023/01/26 07:55:28;;;;;;;;;;;;;;;2.42;100.00;99696.22;5049025;28;19916;-75
2023/01/26 07:57:53;;;;;;;;;;;;;;;2.43;100.00;99703.13;5052212;28;19927;-75
2023/01/26 08:00:19;;;;;;;;;;;;;;;2.46;100.00;99698.59;5053669;28;19916;-75
2023/01/26 08:02:48;;;;;;;;;;;;;;;2.51;100.00;99698.31;5053173;28;19959;-74
2023/01/26 08:05:13;;;;;;;;;;;;;;;2.56;100.00;99698.03;5054606;28;19917;-73
2023/01/26 08:07:39;;;;;;;;;;;;;;;2.55;100.00;99692.00;5053226;28;19924;-75
2023/01/26 08:10:05;;;;;;;;;;;;;;;2.58;100.00;99689.22;5054829;28;19955;-74
2023/01/26 08:12:30;;;;;;;;;;;;;;;2.61;100.00;99689.03;5053000;28;20549;-75
2023/01/26 08:14:56;;;;;;;;;;;;;;;2.63;100.00;99695.00;5050364;28;19952;-74
2023/01/26 08:17:21;;;;;;;;;;;;;;;2.65;100.00;99692.31;5051854;28;19946;-74
2023/01/26 08:19:47;;;;;;;;;;;;;;;2.68;100.00;99690.34;5053249;28;20399;-74
2023/01/26 08:22:12;;;;;;;;;;;;;;;2.69;100.00;99688.59;5053770;28;20383;-75
2023/01/26 08:24:38;;;;;;;;;;;;;;;2.73;100.00;99688.31;5052238;28;19924;-76
2023/01/26 08:27:03;;;;;;;;;;;;;;;2.73;100.00;99675.28;5053016;28;19917;-74
2023/01/26 08:29:29;;;;;;;;;;;;;;;2.78;100.00;99678.44;5053081;28;19927;-76
2023/01/26 08:31:54;;;;;;;;;;;;;;;2.82;100.00;99690.41;5033703;28;20019;-76
2023/01/26 08:34:21;;;;;;;;;;;;;;;2.88;100.00;99679.59;5034155;28;19920;-76
2023/01/26 08:36:47;;;;;;;;;;;;;;;2.92;100.00;99682.84;5049664;28;19951;-77
2023/01/26 08:39:12;;;;;;;;;;;;;;;2.95;100.00;99689.63;5052669;28;19916;-75
2023/01/26 08:41:38;;;;;;;;;;;;;;;2.95;100.00;99684.41;5052930;28;19916;-75
2023/01/26 08:44:04;;;;;;;;;;;;;;;3.01;100.00;99689.28;5053031;28;20330;-75
2023/01/26 08:46:30;;;;;;;;;;;;;;;3.04;100.00;99682.13;5054603;28;19960;-76
2023/01/26 08:48:55;;;;;;;;;;;;;;;3.03;100.00;99684.81;5052371;28;19928;-76
2023/01/26 08:51:20;;;;;;;;;;;;;;;3.02;100.00;99688.34;5052293;28;19921;-76
2023/01/26 08:53:46;;;;;;;;;;;;;;;2.99;100.00;99692.00;5053590;28;19921;-75
2023/01/26 08:56:12;;;;;;;;;;;;;;;3.00;100.00;99685.00;5052541;28;19923;-74
2023/01/26 08:58:37;;;;;;;;;;;;;;;3.00;100.00;99682.41;5051857;28;20007;-76
2023/01/26 09:01:07;;;;;;;;;;;;;;;3.05;100.00;99678.59;5052596;28;19923;-77
2023/01/26 09:03:32;;;;;;;;;;;;;;;3.08;100.00;99677.56;5053331;28;19916;-75
2023/01/26 09:05:58;;;;;;;;;;;;;;;3.10;100.00;99684.34;5053167;28;20004;-77
2023/01/26 09:08:24;;;;;;;;;;;;;;;3.17;100.00;99685.69;5053855;28;20426;-76
2023/01/26 09:10:49;;;;;;;;;;;;;;;3.22;100.00;99691.44;5049455;28;19968;-76
2023/01/26 09:13:14;;;;;;;;;;;;;;;3.25;100.00;99693.00;5053503;28;19944;-76
2023/01/26 09:15:40;;;;;;;;;;;;;;;3.28;100.00;99692.84;5053399;28;20008;-75
2023/01/26 09:18:05;;;;;;;;;;;;;;;3.32;100.00;99691.72;5054475;28;20032;-74
2023/01/26 09:20:31;;;;;;;;;;;;;;;3.41;100.00;99693.78;5052341;28;19925;-75
2023/01/26 09:22:56;;;;;;;;;;;;;;;3.44;100.00;99704.00;5051829;28;19924;-74
2023/01/26 09:25:22;;;;;;;;;;;;;;;3.47;100.00;99698.63;5053913;28;19923;-74
2023/01/26 09:27:47;;;;;;;;;;;;;;;3.53;100.00;99693.00;5050735;28;20003;-74
2023/01/26 09:30:13;;;;;;;;;;;;;;;3.56;100.00;99698.03;5049044;28;19912;-74
2023/01/26 09:32:38;;;;;;;;;;;;;;;3.57;100.00;99704.94;5043837;28;20050;-71
2023/01/26 09:35:04;;;;;;;;;;;;;;;3.63;100.00;99694.09;5048722;28;19913;-71
2023/01/26 09:37:29;;;;;;;;;;;;;;;3.68;100.00;99696.44;5049103;28;19920;-73
2023/01/26 09:39:55;;;;;;;;;;;;;;;3.72;100.00;99705.72;5048052;28;19924;-74
2023/01/26 09:42:28;;;;;;;;;;;;;;;3.72;100.00;99700.50;5051169;28;19920;-73
2023/01/26 09:45:02;;;;;;;;;;;;;;;3.75;100.00;99702.94;5055136;28;19951;-74
2023/01/26 09:47:30;;;;;;;;;;;;;;;3.79;100.00;99706.19;5052847;28;19962;-73
2023/01/26 09:50:10;;;;;;;;;;;;;;;3.85;100.00;99708.41;5044289;28;19920;-74
2023/01/26 09:52:39;;;;;;;;;;;;;;;3.79;100.00;99704.41;5050178;28;20268;-74
2023/01/26 09:55:11;;;;;;;;;;;;;;;3.85;100.00;99703.19;5051217;28;20383;-73
2023/01/26 09:57:47;;;;;;;;;;;;;;;3.89;100.00;99704.69;5029518;28;20293;-73
2023/01/26 10:00:13;;;;;;;;;;;;;;;3.99;100.00;99705.78;5029654;28;19916;-75
2023/01/26 10:02:46;;;;;;;;;;;;;;;3.92;100.00;99705.31;5052839;28;20709;-74
2023/01/26 10:05:16;;;;;;;;;;;;;;;3.97;100.00;99707.63;5049349;28;19916;-72
2023/01/26 10:07:44;;;;;;;;;;;;;;;4.01;100.00;99701.28;5049952;28;20630;-74
2023/01/26 10:10:14;;;;;;;;;;;;;;;4.03;100.00;99702.88;5052972;28;20319;-73
2023/01/26 10:12:39;;;;;;;;;;;;;;;4.04;100.00;99698.47;5050696;28;20003;-73
2023/01/26 10:15:27;;;;;;;;;;;;;;;4.12;100.00;99706.69;5053292;28;19971;-74
2023/01/26 10:17:53;;;;;;;;;;;;;;;4.19;100.00;99697.47;5048182;28;19921;-73
2023/01/26 10:20:31;;;;;;;;;;;;;;;4.20;100.00;99688.72;5052699;28;20349;-73
2023/01/26 10:23:02;;;;;;;;;;;;;;;4.26;100.00;99680.50;5051536;28;20339;-76
2023/01/26 10:25:35;;;;;;;;;;;;;;;4.35;100.00;99682.50;5052851;28;20280;-74
2023/01/26 10:28:19;;;;;;;;;;;;;;;4.36;100.00;99673.72;5052677;28;20281;-76
2023/01/26 10:30:45;;;;;;;;;;;;;;;4.38;100.00;99677.06;5049878;28;19921;-74
2023/01/26 10:33:19;;;;;;;;;;;;;;;4.43;100.00;99669.75;5053202;28;20603;-74
2023/01/26 10:35:44;;;;;;;;;;;;;;;4.50;100.00;99673.66;5049143;28;19920;-74
2023/01/26 10:38:25;;;;;;;;;;;;;;;4.59;100.00;99666.16;5056420;28;19921;-75
2023/01/26 10:40:51;;;;;;;;;;;;;;;4.59;100.00;99663.53;5050521;28;19916;-73
2023/01/26 10:43:17;;;;;;;;;;;;;;;4.63;100.00;99649.31;5052835;28;19924;-74
2023/01/26 10:45:44;;;;;;;;;;;;;;;4.69;100.00;99648.91;5052382;28;19917;-75
2023/01/26 10:48:12;;;;;;;;;;;;;;;4.73;100.00;99650.38;5052686;28;19917;-74
2023/01/26 10:50:37;;;;;;;;;;;;;;;4.79;100.00;99636.88;5047043;28;20045;-73
2023/01/26 10:53:03;;;;;;;;;;;;;;;4.81;100.00;99637.63;5052170;28;19977;-74
2023/01/26 10:55:30;;;;;;;;;;;;;;;4.83;100.00;99630.53;5052051;28;19929;-74
2023/01/26 10:57:55;;;;;;;;;;;;;;;4.93;100.00;99631.56;5056371;28;19961;-73
2023/01/26 11:00:21;;;;;;;;;;;;;;;5.03;100.00;99632.59;5052195;28;19935;-73
2023/01/26 11:02:52;;;;;;;;;;;;;;;5.08;100.00;99625.25;5052456;28;19923;-73
2023/01/26 11:05:24;;;;;;;;;;;;;;;5.09;100.00;99616.47;5052110;28;20334;-74
2023/01/26 11:07:59;;;;;;;43.40;30.95;;;;;;;5.06;100.00;99611.47;5051658;28;20312;-73
2023/01/26 11:10:34;;;;;;;51.97;30.38;;;;;;;5.14;100.00;99610.91;5051186;28;20456;-74
2023/01/26 11:13:20;;;;;;;50.03;31.13;;;;;;;5.19;100.00;99600.97;5051626;28;20037;-74
2023/01/26 11:15:59;;;;;;;46.25;30.40;;;;;;;5.24;100.00;99610.16;5051810;28;20490;-74
2023/01/26 11:18:25;;;;;;;48.03;31.95;;;;;;;5.30;100.00;99604.50;5051037;28;20117;-73
2023/01/26 11:20:56;;;;;;;;;;;;;;;5.39;100.00;99596.94;5052036;28;20015;-74
2023/01/26 11:23:36;;;;;;;;;;;;;;;5.46;100.00;99590.34;5050587;28;20463;-73
2023/01/26 11:26:08;;;;;;;;;;;;;;;5.51;100.00;99586.44;5051738;28;20396;-74
2023/01/26 11:28:48;;;;;;;;;;;;;;;5.56;100.00;99576.47;5051290;28;20379;-74
2023/01/26 11:31:23;;;;;;;;;;;;;;;5.66;100.00;99571.38;5049210;28;20316;-74
2023/01/26 11:33:55;;;;;;;;;;;;;;;5.68;100.00;99567.72;5053550;28;19919;-74
2023/01/26 11:36:26;;;;;;;;;;;;;;;5.73;100.00;99562.16;5054303;28;20261;-75
2023/01/26 11:39:01;;;;;;;;;;;;;;;5.78;100.00;99550.38;5051286;28;20330;-75
2023/01/26 11:41:32;;;;;;;;;;;;;;;5.86;100.00;99547.22;5051902;28;19916;-74
2023/01/26 11:44:06;;;;;;;;;;;;;;;5.91;100.00;99537.25;5052512;28;19917;-74
2023/01/26 11:46:51;;;;;;;;;;;;;;;5.98;100.00;99529.78;5052124;28;19924;-73
2023/01/26 11:49:19;;;;;;;;;;;;;;;6.03;100.00;99525.88;5049592;28;19917;-74
2023/01/26 11:51:51;;;;;;;;;;;;;;;6.06;100.00;99525.66;5052713;28;19960;-74
2023/01/26 11:54:33;;;;;;;;;;;;;;;6.18;100.00;99533.56;5037871;28;19967;-74
2023/01/26 11:57:10;;;;;;;;;;;;;;;6.28;100.00;99526.66;5052996;28;19916;-73
2023/01/26 11:59:49;;;;;;;;;;;;;;;6.34;100.00;99528.81;5034510;28;19916;-74
2023/01/26 12:02:32;;;;;;;;;;;;;;;6.47;100.00;99516.44;5050768;28;19956;-74
2023/01/26 12:05:01;;;;;;;;;;;;;;;6.59;100.00;99512.88;5052817;28;19927;-73
2023/01/26 12:07:50;;;;;;;37.30;24.38;;;;;;;6.72;100.00;99516.19;5050071;28;19917;-73
2023/01/26 12:10:20;;;;;;;37.80;24.52;;;;;;;6.89;100.00;99499.97;5047637;28;20056;-74
2023/01/26 12:12:52;;;;;;;38.50;23.77;;;;;;;6.99;100.00;99500.94;5054409;28;20047;-74
2023/01/26 12:15:26;;;;;;;38.25;25.45;;;;;;;7.14;100.00;99492.78;5032350;28;20037;-73
2023/01/26 12:18:20;;;;;;;37.75;23.10;;;;;;;7.24;100.00;99485.88;5050140;28;20033;-73
2023/01/26 12:21:02;;;;;;;36.67;23.45;;;;;;;7.35;100.00;99485.84;5047135;28;20037;-73
2023/01/26 12:23:47;;;;;;;36.50;24.75;;;;;;;7.51;100.00;99478.38;5049693;28;20185;-74
2023/01/26 12:26:17;;;;;;;38.78;25.20;;;;;;;7.61;100.00;99467.94;5046581;28;20048;-73
2023/01/26 12:28:52;;;;;;;37.42;25.85;;;;;;;7.72;100.00;99463.47;5049938;28;20041;-73
2023/01/26 12:31:23;;;;;;;36.50;24.77;;;;;;;7.81;100.00;99457.47;5051211;28;20033;-73
2023/01/26 12:33:53;;;;;;;;;;;;;;;7.95;100.00;99458.91;5050731;28;19917;-73
2023/01/26 12:36:21;;;;;;;;;;;;;;;8.04;100.00;99457.31;5050014;28;19966;-73
2023/01/26 12:38:55;;;;;;;;;;;;;;;8.13;100.00;99446.84;5050065;28;19960;-74
2023/01/26 12:41:27;;;;;;;;;;;;;;;8.24;100.00;99448.59;5049710;28;19920;-74
2023/01/26 12:43:52;;;;;;;;;;;;;;;8.24;100.00;99443.34;5050227;28;19921;-73
2023/01/26 12:46:19;;;;;;;;;;;;;;;8.21;100.00;99439.16;5050014;28;20007;-76
2023/01/26 12:48:47;;;;;;;;;;;;;;;8.24;100.00;99432.84;5049437;28;19924;-75
2023/01/26 12:51:19;;;;;;;;;;;;;;;8.32;100.00;99435.66;5054489;28;20400;-73
2023/01/26 12:53:48;;;;;;;;;;;;;;;8.46;100.00;99426.59;5050127;28;19977;-75
2023/01/26 12:56:43;;;;;;;;;;;;;;;8.51;100.00;99429.66;5049531;28;20372;-75
2023/01/26 12:59:20;;;;;;;;;;;;;;;8.57;100.00;99419.44;5035630;28;19966;-75
2023/01/26 13:01:46;;;;;;;;;;;;;;;8.62;100.00;99427.75;5047288;28;19967;-75
2023/01/26 13:04:12;;;;;;;;;;;;;;;8.65;100.00;99415.31;5049927;28;19959;-75
2023/01/26 13:06:38;;;;;;;;;;;;;;;8.61;100.00;99414.72;5045543;28;19974;-75
2023/01/26 13:09:04;;;;;;;;;;;;;;;8.55;100.00;99405.56;5050150;28;20286;-76
2023/01/26 13:11:42;;;;;;;;;;;;;;;8.47;100.00;99404.59;5049408;28;19983;-75
2023/01/26 13:14:23;;;;;;;;;;;;;;;8.37;100.00;99407.16;5045811;28;19921;-75
2023/01/26 13:16:48;;;;;;;;;;;;;;;8.25;100.00;99396.88;5047154;28;19990;-75
2023/01/26 13:19:32;;;;;;;;;;;;;;;8.16;100.00;99398.47;5050375;28;20345;-75
2023/01/26 13:21:57;;;;;;;;;;;;;;;8.20;100.00;99389.34;5049738;28;20011;-75
2023/01/26 13:24:22;;;;;;;;;;;;;;;8.19;100.00;99390.31;5049277;28;20011;-75
2023/01/26 13:26:49;;;;;;;;;;;;;;;8.12;100.00;99391.81;5049556;28;19917;-75
2023/01/26 13:29:24;;;;;;;;;;;;;;;8.08;100.00;99390.41;5053536;28;19922;-75
2023/01/26 13:31:54;;;;;;;;;;;;;;;8.00;100.00;99382.34;5047881;28;20070;-75